Latest Weather Observations for Meekatharra

IDW60801

Issued at 6:34 am WST Monday 27 March 2017 (issued every 30 minutes, with the page automatically refreshed every 10 minutes)

About weather observations | Map of weather stations | Latest weather observations for WA | Other Formats
Station Details ID: 007045 Name: MEEKATHARRA AIRPORT Lat: -26.61 Lon: 118.54 Height: 517.0 m
Data from the previous 72 hours. | See also: Recent months at Meekatharra
Date/Time
WST
Temp
°C
App
Temp
°C
Dew
Point
°C
Rel
Hum
%
Delta-T
°C
Wind Press
QNH
hPa
Press
MSL
hPa
Rain since
9am
mm
Dir  Spd
km/h
Gust
km/h
Spd
kts
Gust
kts
27/06:30am 16.4 12.9 10.3 67 3.3 SE 19 24 10 13 1019.2 1015.6 0.0
27/06:00am 16.2 13.1 10.3 68 3.2 SSE 17 24 9 13 1018.8 1015.2 0.0
27/05:30am 16.5 13.1 10.6 68 3.2 SSE 19 24 10 13 1018.5 1014.9 0.0
27/05:00am 16.6 13.6 10.7 68 3.2 SSE 17 22 9 12 1018.4 1014.8 0.0
27/04:30am 16.9 13.6 11.0 68 3.3 SSE 19 24 10 13 1017.9 1014.3 0.0
27/04:00am 17.2 14.4 11.2 68 3.3 SSE 17 24 9 13 1017.9 1014.3 0.0
27/03:30am 17.6 14.8 11.2 66 3.6 SSE 17 24 9 13 1017.7 1014.1 0.0
27/03:00am 18.0 14.8 11.3 65 3.7 SSE 19 24 10 13 1017.6 1014.0 0.0
27/02:30am 18.4 15.3 11.5 64 3.9 SSE 19 24 10 13 1017.4 1013.8 0.0
27/02:00am 18.9 15.8 11.5 62 4.2 SSE 19 28 10 15 1017.3 1013.7 0.0
27/01:30am 19.6 15.7 10.9 57 4.9 SSE 22 32 12 17 1017.4 1013.8 0.0
27/01:00am 20.4 16.1 10.8 54 5.4 SSE 24 32 13 17 1017.2 1013.6 0.0
27/12:30am 21.0 17.1 10.8 52 5.7 SSE 22 33 12 18 1017.2 1013.6 0.0
27/12:00am 20.6 17.7 11.0 54 5.4 SSE 17 22 9 12 1017.0 1013.4 0.0
 
Date/Time
WST
Temp
°C
App
Temp
°C
Dew
Point
°C
Rel
Hum
%
Delta-T
°C
Wind Press
QNH
hPa
Press
MSL
hPa
Rain since
9am
mm
Dir  Spd
km/h
Gust
km/h
Spd
kts
Gust
kts
26/11:30pm 20.7 17.9 11.3 55 5.3 SSE 17 20 9 11 1016.9 1013.3 0.0
26/11:00pm 20.7 18.6 11.3 55 5.3 SSE 13 17 7 9 1016.9 1013.3 0.0
26/10:30pm 21.2 19.4 12.1 56 5.2 S 13 17 7 9 1016.9 1013.3 0.0
26/10:00pm 21.9 20.0 11.9 53 5.7 S 13 17 7 9 1016.8 1013.2 0.0
26/09:30pm 22.8 20.0 11.5 49 6.5 S 17 20 9 11 1016.6 1013.0 0.0
26/09:00pm 23.2 21.2 12.8 52 6.1 S 15 20 8 11 1016.3 1012.6 0.0
26/08:30pm 22.9 22.7 14.7 60 5.0 S 9 13 5 7 1016.2 1012.5 0.0
26/08:00pm 23.5 23.0 14.8 58 5.3 S 11 11 6 6 1016.0 1012.3 0.0
26/07:30pm 24.6 23.7 13.8 51 6.5 SSW 11 13 6 7 1015.5 1011.9 0.0
26/07:00pm 25.5 24.6 13.7 48 7.1 SSW 11 15 6 8 1015.1 1011.5 0.0
26/06:30pm 26.8 23.8 12.1 40 8.7 SSW 19 26 10 14 1014.6 1010.9 0.0
26/06:00pm 27.5 24.7 13.1 41 8.7 SSW 20 28 11 15 1014.3 1010.6 0.0
26/05:30pm 28.5 25.1 12.4 37 9.6 SSW 22 30 12 16 1013.8 1010.2 0.0
26/05:00pm 28.9 25.1 12.3 36 9.9 SSW 24 35 13 19 1013.5 1009.9 0.0
26/04:30pm 29.1 25.6 13.3 37 9.6 SSW 24 37 13 20 1013.4 1009.8 0.0
26/04:00pm 29.6 25.9 13.8 38 9.7 SSW 26 35 14 19 1012.9 1009.3 0.0
26/03:30pm 30.1 27.9 15.0 40 9.4 SSW 20 32 11 17 1012.8 1009.1 0.0
26/03:00pm 30.3 28.1 14.4 38 9.9 WSW 19 28 10 15 1012.7 1009.0 0.0
26/02:30pm 30.2 27.9 14.7 39 9.6 SSW 20 28 11 15 1012.5 1008.8 0.0
26/02:00pm 29.4 27.8 16.6 46 8.2 SW 20 26 11 14 1012.6 1008.9 0.0
26/01:30pm 29.3 28.6 16.5 46 8.2 WSW 15 24 8 13 1012.8 1009.1 0.0
26/01:00pm 28.9 28.4 17.7 50 7.3 SW 17 22 9 12 1012.9 1009.3 0.0
26/12:30pm 28.7 27.7 16.6 48 7.7 SW 17 24 9 13 1013.1 1009.5 0.0
26/12:00pm 28.2 28.7 19.2 58 5.9 SW 15 22 8 12 1013.5 1009.9 0.0
26/11:30am 27.8 28.5 18.8 58 5.9 WSW 13 20 7 11 1013.7 1010.1 0.0
26/11:00am 27.1 28.8 20.2 66 4.6 SSW 11 17 6 9 1014.1 1010.4 0.0
26/10:30am 26.0 27.4 19.6 68 4.2 WSW 11 22 6 12 1014.5 1010.8 0.0
26/10:00am 25.4 25.8 19.1 68 4.1 SW 15 20 8 11 1014.6 1010.9 0.0
26/09:30am 25.4 26.6 20.0 72 3.6 SW 13 17 7 9 1014.7 1011.1 0.0
26/09:00am 24.8 25.2 19.8 74 3.3 SW 17 24 9 13 1014.8 1011.2 0.0
26/08:30am 24.2 25.3 19.7 76 3.0 SW 13 19 7 10 1014.6 1010.9 0.0
26/08:00am 23.1 24.1 19.5 80 2.3 SW 13 19 7 10 1014.3 1010.6 0.0
26/07:30am 22.0 24.1 20.1 89 1.2 SSW 9 13 5 7 1013.8 1010.2 0.0
26/07:00am 20.9 22.6 20.1 95 0.5 SSW 11 15 6 8 1013.6 1010.0 0.0
26/06:30am 20.2 22.9 19.4 95 0.5 SW 4 7 2 4 1013.0 1009.4 0.0
26/06:00am 20.4 22.9 19.9 97 0.3 NNW 6 9 3 5 1012.5 1008.8 0.0
26/05:30am 20.2 22.6 19.7 97 0.3 N 6 6 3 3 1012.2 1008.5 0.0
26/05:00am 20.4 22.7 19.9 97 0.3 N 7 9 4 5 1011.9 1008.2 0.0
26/04:30am 20.5 22.9 20.0 97 0.3 NNW 7 7 4 4 1011.6 1008.0 0.0
26/04:00am 20.6 24.3 19.9 96 0.5 CALM 0 0 0 0 1011.5 1007.9 0.0
26/03:30am 20.6 24.3 19.9 96 0.5 CALM 0 0 0 0 1011.5 1007.9 0.0
26/03:00am 20.7 24.4 19.9 95 0.5 CALM 0 0 0 0 1011.4 1007.8 0.0
26/02:30am 20.9 24.7 20.1 95 0.5 CALM 0 0 0 0 1011.3 1007.7 0.0
26/02:00am 21.0 24.8 20.2 95 0.5 CALM 0 0 0 0 1011.3 1007.7 0.0
26/01:30am 21.2 25.1 20.4 95 0.5 CALM 0 0 0 0 1011.5 1007.9 0.0
26/01:00am 21.1 24.8 19.9 93 0.8 CALM 0 0 0 0 1011.6 1008.0 0.0
26/12:30am 21.5 25.5 20.5 94 0.7 CALM 0 0 0 0 1011.7 1008.1 0.0
26/12:00am 21.6 25.5 20.4 93 0.8 CALM 0 4 0 2 1012.0 1008.3 0.0
 
Date/Time
WST
Temp
°C
App
Temp
°C
Dew
Point
°C
Rel
Hum
%
Delta-T
°C
Wind Press
QNH
hPa
Press
MSL
hPa
Rain since
9am
mm
Dir  Spd
km/h
Gust
km/h
Spd
kts
Gust
kts
25/11:30pm 21.9 24.7 20.5 92 0.9 WSW 6 6 3 3 1012.1 1008.4 0.0
25/11:00pm 22.0 24.8 20.5 91 1.0 WSW 6 6 3 3 1012.1 1008.4 0.0
25/10:30pm 22.5 25.4 20.6 89 1.3 WSW 6 6 3 3 1012.4 1008.7 0.0
25/10:00pm 22.9 26.9 20.6 87 1.5 CALM 0 0 0 0 1012.4 1008.7 0.0
25/09:30pm 23.2 27.2 20.5 85 1.8 CALM 0 0 0 0 1012.6 1008.9 0.0
25/09:00pm 24.0 26.6 20.1 79 2.6 WSW 6 6 3 3 1012.6 1008.9 0.0
25/08:30pm 24.3 27.0 20.2 78 2.7 WSW 6 7 3 4 1012.4 1008.7 0.0
25/08:00pm 24.7 27.0 19.8 74 3.2 WSW 7 9 4 5 1012.1 1008.4 0.0
25/07:30pm 24.9 26.8 19.7 73 3.4 WSW 9 13 5 7 1011.9 1008.2 0.0
25/07:00pm 25.0 27.2 19.6 72 3.6 WSW 7 9 4 5 1011.5 1007.9 0.0
25/06:30pm 25.2 26.9 19.3 70 3.9 WSW 9 13 5 7 1011.2 1007.6 0.0
25/06:00pm 25.4 26.6 19.1 68 4.1 W 11 15 6 8 1010.8 1007.1 0.0
25/05:30pm 25.6 26.4 19.0 67 4.3 WSW 13 17 7 9 1010.5 1006.8 0.0
25/05:00pm 25.8 26.6 19.0 66 4.4 WSW 13 17 7 9 1010.2 1006.5 0.0
25/04:30pm 25.9 26.2 18.8 65 4.6 WSW 15 20 8 11 1009.9 1006.2 0.0
25/04:00pm 26.1 26.9 19.0 65 4.6 SW 13 17 7 9 1009.6 1006.0 0.0
25/03:30pm 26.3 27.0 18.9 63 4.8 SW 13 15 7 8 1009.5 1005.9 0.0
25/03:00pm 26.4 27.9 18.8 63 5.0 SW 9 15 5 8 1009.6 1006.0 0.0
25/02:30pm 26.4 27.1 18.8 63 5.0 SW 13 20 7 11 1009.6 1006.0 0.0
25/02:00pm 26.2 27.5 19.3 65 4.5 SW 11 17 6 9 1009.7 1006.1 0.0
25/01:30pm 25.8 26.3 19.2 67 4.3 WSW 15 20 8 11 1010.0 1006.3 0.0
25/01:00pm 26.3 27.3 19.4 66 4.5 WSW 13 20 7 11 1010.1 1006.4 0.0
25/12:30pm 25.3 26.1 19.9 72 3.6 SW 15 20 8 11 1010.4 1006.7 0.0
25/12:00pm 24.7 25.5 19.8 74 3.2 SW 15 19 8 10 1010.8 1007.1 0.0
25/11:30am 24.0 24.9 19.3 75 3.1 SW 13 20 7 11 1011.1 1007.4 0.0
25/11:00am 23.7 24.3 19.4 77 2.8 SW 15 20 8 11 1011.4 1007.8 0.0
25/10:30am 23.3 23.8 19.2 78 2.7 SW 15 22 8 12 1011.5 1007.9 0.0
25/10:20am 23.3 23.6 19.5 79 2.5 SW 17 24 9 13 1011.5 1007.9 0.0
25/10:00am 22.9 23.3 19.1 79 2.5 SW 15 20 8 11 1011.5 1007.9 0.0
25/09:30am 22.4 22.7 19.6 84 1.8 SSW 17 20 9 11 1011.4 1007.8 0.0
25/09:00am 21.6 22.2 20.2 92 0.9 SSW 17 22 9 12 1011.3 1007.7 4.8
25/08:30am 21.4 22.0 20.2 93 0.8 SSW 17 20 9 11 1011.0 1007.3 4.8
25/08:27am 21.4 22.6 20.6 95 0.5 SSW 15 20 8 11 1010.9 1007.2 4.8
25/08:00am 20.9 21.9 20.2 96 0.5 SSW 15 20 8 11 1010.6 1006.9 4.6
25/07:53am 20.8 22.1 20.1 96 0.5 SSW 13 19 7 10 1010.6 1006.9 4.6
25/07:30am 20.7 21.5 19.9 95 0.5 SSW 15 20 8 11 1010.4 1006.7 4.6
25/07:05am 20.5 21.7 20.0 97 0.3 SSW 13 17 7 9 1010.1 1006.4 4.6
25/07:00am 20.4 21.6 19.9 97 0.3 SSW 13 17 7 9 1010.1 1006.4 4.6
25/06:47am 20.4 21.6 19.9 97 0.3 SSW 13 17 7 9 1010.0 1006.3 4.6
25/06:30am 20.4 21.2 19.9 97 0.3 SSW 15 20 8 11 1010.0 1006.3 4.6
25/06:09am 20.4 21.6 19.9 97 0.3 SSW 13 19 7 10 1009.7 1006.1 4.6
25/06:00am 20.3 21.8 19.8 97 0.3 S 11 19 6 10 1009.7 1006.1 4.6
25/05:56am 20.3 21.5 19.8 97 0.3 S 13 19 7 10 1009.6 1006.0 4.6
25/05:53am 20.3 21.5 19.8 97 0.3 SSW 13 17 7 9 1009.6 1006.0 4.6
25/05:30am 20.3 21.5 19.8 97 0.3 S 13 17 7 9 1009.4 1005.8 4.6
25/05:00am 20.3 21.5 19.8 97 0.3 S 13 17 7 9 1009.1 1005.4 4.6
25/04:30am 20.2 20.9 19.7 97 0.3 S 15 19 8 10 1008.9 1005.2 4.4
25/04:00am 20.2 20.9 19.7 97 0.3 S 15 20 8 11 1008.7 1005.0 4.4
25/03:30am 20.1 20.4 19.6 97 0.3 S 17 22 9 12 1008.6 1004.9 4.4
25/03:00am 20.1 19.9 19.4 96 0.5 SSE 19 26 10 14 1008.5 1004.8 4.2
25/02:30am 20.0 19.8 19.3 96 0.5 SSE 19 26 10 14 1008.7 1005.0 4.2
25/02:00am 20.2 20.5 19.5 96 0.5 S 17 22 9 12 1008.8 1005.1 4.2
25/01:30am 20.2 20.1 19.5 96 0.5 S 19 26 10 14 1008.8 1005.1 4.0
25/01:00am 20.3 20.2 19.6 96 0.5 S 19 24 10 13 1008.8 1005.1 4.0
25/12:30am 20.4 19.7 19.4 94 0.6 S 22 32 12 17 1008.9 1005.2 3.8
25/12:25am 20.5 19.8 19.5 94 0.6 S 22 32 12 17 1008.9 1005.2 3.6
25/12:00am 20.7 20.0 19.5 93 0.8 S 22 30 12 16 1009.0 1005.3 3.6
 
Date/Time
WST
Temp
°C
App
Temp
°C
Dew
Point
°C
Rel
Hum
%
Delta-T
°C
Wind Press
QNH
hPa
Press
MSL
hPa
Rain since
9am
mm
Dir  Spd
km/h
Gust
km/h
Spd
kts
Gust
kts
24/11:30pm 20.6 19.6 19.6 94 0.6 S 24 32 13 17 1009.0 1005.3 3.6
24/11:00pm 20.9 20.2 19.6 92 0.8 S 22 33 12 18 1009.2 1005.5 3.6
24/10:30pm 20.9 19.9 19.6 92 0.8 S 24 35 13 19 1009.4 1005.8 3.6
24/10:00pm 20.9 20.4 19.9 94 0.7 S 22 32 12 17 1009.5 1005.9 3.6
24/09:30pm 20.9 20.4 19.9 94 0.7 SSE 22 33 12 18 1009.7 1006.1 3.6
24/09:00pm 20.9 20.1 20.1 95 0.5 S 24 35 13 19 1009.5 1005.9 3.6
24/08:30pm 21.0 20.3 20.2 95 0.5 SSE 24 30 13 16 1009.4 1005.8 3.6
24/08:00pm 21.0 19.9 20.2 95 0.5 SSE 26 35 14 19 1009.3 1005.6 3.6
24/07:30pm 21.0 20.3 20.3 96 0.5 S 24 32 13 17 1008.9 1005.2 3.6
24/07:03pm 21.0 20.3 20.3 96 0.5 S 24 35 13 19 1008.6 1004.9 3.4
24/07:00pm 21.0 20.3 20.3 96 0.5 S 24 35 13 19 1008.6 1004.9 3.4
24/06:30pm 21.1 20.5 20.4 96 0.5 S 24 33 13 18 1008.5 1004.8 2.8
24/06:00pm 21.3 21.1 20.6 96 0.5 S 22 33 12 18 1008.3 1004.6 2.4
24/05:39pm 21.5 21.4 20.7 95 0.5 SSE 22 32 12 17 1008.1 1004.4 1.8
24/05:30pm 21.4 20.1 20.6 95 0.5 S 28 37 15 20 1008.0 1004.3 1.6
24/05:19pm 21.4 20.8 20.4 94 0.7 S 24 35 13 19 1007.9 1004.2 1.6
24/05:00pm 21.4 20.8 20.6 95 0.5 SSE 24 37 13 20 1007.6 1003.9 1.6
24/04:30pm 21.6 21.5 20.8 95 0.5 S 22 32 12 17 1007.4 1003.7 1.0
24/04:00pm 21.8 21.6 20.6 93 0.8 SSE 22 32 12 17 1007.3 1003.6 0.4
24/03:41pm 21.9 21.7 20.5 92 0.9 SSE 22 33 12 18 1007.3 1003.6 0.0
24/03:30pm 22.4 20.4 19.9 86 1.6 SE 30 39 16 21 1007.3 1003.6 0.0
24/03:13pm 22.5 21.8 20.2 87 1.5 SE 24 33 13 18 1007.4 1003.7 0.0
24/03:00pm 22.4 21.2 20.1 87 1.5 SE 26 37 14 20 1007.3 1003.6 0.0
24/02:53pm 22.1 20.5 20.0 88 1.4 SE 28 39 15 21 1007.4 1003.7 0.0
24/02:32pm 22.3 20.6 19.7 85 1.7 SE 28 39 15 21 1007.5 1003.8 0.0
24/02:30pm 22.4 20.6 19.6 84 1.8 SE 28 43 15 23 1007.5 1003.8 0.0
24/02:00pm 23.2 20.3 18.9 77 2.8 SE 32 44 17 24 1007.6 1003.9 0.0
24/01:30pm 23.2 20.3 18.9 77 2.8 SE 32 46 17 25 1008.0 1004.3 0.0
24/01:26pm 23.2 21.1 18.9 77 2.8 SE 28 46 15 25 1008.1 1004.4 0.0
24/01:00pm 22.7 19.9 19.1 80 2.3 SE 32 44 17 24 1008.5 1004.8 0.0
24/12:30pm 22.9 20.6 19.3 80 2.3 SE 30 44 16 24 1008.8 1005.1 0.0
24/12:11pm 22.6 19.9 19.2 81 2.2 SE 32 50 17 27 1009.0 1005.3 0.0
24/12:00pm 22.8 20.0 19.0 79 2.5 SE 32 48 17 26 1009.2 1005.5 0.0
24/11:30am 22.9 19.8 18.9 78 2.6 ESE 33 50 18 27 1009.5 1005.9 0.0
24/11:00am 22.8 19.9 18.8 78 2.6 ESE 32 43 17 23 1010.0 1006.3 0.0
24/10:30am 22.8 20.0 19.0 79 2.5 ESE 32 44 17 24 1010.3 1006.6 0.0
24/10:00am 22.8 21.0 19.6 82 2.1 ESE 28 43 15 23 1010.5 1006.8 0.0
24/09:30am 22.0 20.3 19.7 87 1.5 ESE 28 37 15 20 1010.6 1006.9 0.0
24/09:00am 21.0 20.0 19.7 92 0.8 SE 24 39 13 21 1010.7 1007.0 14.0
24/08:34am 20.6 19.6 19.6 94 0.6 SE 24 37 13 20 1010.7 1007.0 14.0
24/08:30am 20.6 19.2 19.6 94 0.6 SE 26 37 14 20 1010.6 1006.9 14.0
24/08:00am 20.3 19.6 19.5 95 0.5 ESE 22 33 12 18 1010.7 1007.0 12.8
24/07:30am 20.4 19.2 19.2 93 0.8 ESE 24 35 13 19 1010.6 1006.9 12.0
24/07:28am 20.4 19.2 19.2 93 0.8 ESE 24 35 13 19 1010.6 1006.9 12.0
24/07:00am 20.5 20.0 19.2 92 0.8 ESE 20 33 11 18 1010.4 1006.7 12.0

Other Formats:

Comma delimited format used in spreadsheet applications
http://www.bom.gov.au/fwo/IDW60801/IDW60801.94430.axf

JavaScript Object Notation format (JSON) in row-major order
http://www.bom.gov.au/fwo/IDW60801/IDW60801.94430.json